createdAt,value
2023-12-13T00:01:41.059Z,0.90
2023-12-13T00:06:44.792Z,1.13
2023-12-13T00:11:48.494Z,1.30
2023-12-13T00:16:53.665Z,0.93
2023-12-13T00:21:58.536Z,1.13
2023-12-13T00:27:02.597Z,1.20
2023-12-13T00:32:08.246Z,1.00
2023-12-13T00:37:12.243Z,1.23
2023-12-13T00:42:15.952Z,1.10
2023-12-13T00:47:21.025Z,1.00
2023-12-13T00:52:24.893Z,1.00
2023-12-13T00:57:28.621Z,1.40
2023-12-13T01:02:33.686Z,1.30
2023-12-13T01:07:37.833Z,0.80
2023-12-13T01:12:43.792Z,0.80
2023-12-13T01:17:48.892Z,1.20
2023-12-13T01:22:52.678Z,0.95
2023-12-13T01:27:58.928Z,1.17
2023-12-13T01:33:04.538Z,1.77
2023-12-13T01:38:08.293Z,1.65
2023-12-13T01:43:22.794Z,2.15
2023-12-13T01:48:29.499Z,1.90
2023-12-13T01:53:35.655Z,2.17
2023-12-13T01:58:40.812Z,2.33
2023-12-13T02:03:45.938Z,2.40
2023-12-13T02:08:49.656Z,2.50
2023-12-13T02:13:54.810Z,2.47
2023-12-13T02:19:00.195Z,2.60
2023-12-13T02:24:06.539Z,2.92
2023-12-13T02:29:11.043Z,2.73
2023-12-13T02:34:14.695Z,2.90
2023-12-13T02:39:20.085Z,3.45
2023-12-13T02:44:23.813Z,3.25
2023-12-13T02:49:27.953Z,2.70
2023-12-13T02:54:33.175Z,3.17
2023-12-13T02:59:36.875Z,3.60
2023-12-13T03:04:40.631Z,2.60
2023-12-13T03:09:45.839Z,2.17
2023-12-13T03:14:49.711Z,2.35
2023-12-13T03:19:53.399Z,2.10
2023-12-13T03:24:58.971Z,1.58
2023-12-13T03:30:02.705Z,1.80
2023-12-13T03:35:07.673Z,1.90
2023-12-13T03:40:14.250Z,1.63
2023-12-13T03:45:18.141Z,1.73
2023-12-13T03:50:22.259Z,2.10
2023-12-13T03:55:27.366Z,2.00
2023-12-13T04:00:31.085Z,1.95
2023-12-13T04:05:34.935Z,1.83
2023-12-13T04:10:40.155Z,1.95
2023-12-13T04:15:44.470Z,1.67
2023-12-13T04:20:48.114Z,1.73
2023-12-13T04:25:53.358Z,2.30
2023-12-13T04:30:57.242Z,2.03
2023-12-13T04:36:02.025Z,2.10
2023-12-13T04:41:09.314Z,2.25
2023-12-13T04:46:13.082Z,2.50
2023-12-13T04:51:16.892Z,2.20
2023-12-13T04:56:21.991Z,1.92
2023-12-13T05:01:25.702Z,1.83
2023-12-13T05:06:29.384Z,2.53
2023-12-13T05:11:34.427Z,2.28
2023-12-13T05:16:38.248Z,2.40
2023-12-13T05:21:42.010Z,2.47
2023-12-13T05:26:47.352Z,2.35
2023-12-13T05:31:52.386Z,2.55
2023-12-13T05:36:57.109Z,2.63
2023-12-13T05:42:02.238Z,2.75
2023-12-13T05:47:06.023Z,3.00
2023-12-13T05:52:09.730Z,2.40
2023-12-13T05:57:15.134Z,3.25
2023-12-13T06:02:18.988Z,1.98
2023-12-13T06:07:22.806Z,2.15
2023-12-13T06:12:27.918Z,2.20
2023-12-13T06:17:32.288Z,2.85
2023-12-13T06:22:36.321Z,2.63
2023-12-13T06:27:41.399Z,2.20
2023-12-13T06:32:45.125Z,2.20
2023-12-13T06:37:48.827Z,3.10
2023-12-13T06:42:53.910Z,3.35
2023-12-13T06:47:57.722Z,3.63
2023-12-13T06:53:01.827Z,3.35
2023-12-13T06:58:07.234Z,3.50
2023-12-13T07:03:12.013Z,3.38
2023-12-13T07:08:15.946Z,3.05
2023-12-13T07:13:21.059Z,2.92
2023-12-13T07:18:26.165Z,2.70
2023-12-13T07:23:33.046Z,2.65
2023-12-13T07:28:38.334Z,2.60
2023-12-13T07:33:43.071Z,2.78
2023-12-13T07:38:47.243Z,3.33
2023-12-13T07:43:52.938Z,2.15
2023-12-13T07:48:58.924Z,2.97
2023-12-13T07:54:04.175Z,2.92
2023-12-13T07:59:09.431Z,3.55
2023-12-13T08:04:13.267Z,3.55
2023-12-13T08:09:20.044Z,3.60
2023-12-13T08:14:30.994Z,3.72
2023-12-13T08:19:34.722Z,3.58
2023-12-13T08:24:38.463Z,3.80
2023-12-13T08:29:43.523Z,3.55
2023-12-13T08:34:47.282Z,4.13
2023-12-13T08:39:53.236Z,4.30
2023-12-13T08:44:58.857Z,4.15
2023-12-13T08:50:02.591Z,4.05
2023-12-13T08:55:09.515Z,4.53
2023-12-13T09:00:16.601Z,4.13
2023-12-13T09:05:20.385Z,4.85
2023-12-13T09:10:24.300Z,4.45
2023-12-13T09:15:29.470Z,4.75
2023-12-13T09:20:33.430Z,4.40
2023-12-13T09:25:37.245Z,4.28
2023-12-13T09:30:42.593Z,5.07
2023-12-13T09:35:46.369Z,4.43
2023-12-13T09:40:50.645Z,4.50
2023-12-13T09:45:56.756Z,4.60
2023-12-13T09:51:01.256Z,4.40
2023-12-13T09:56:06.181Z,3.85
2023-12-13T10:01:12.389Z,4.65
2023-12-13T10:06:17.328Z,4.73
2023-12-13T10:11:21.054Z,4.47
2023-12-13T10:16:28.378Z,5.20
2023-12-13T10:21:34.663Z,5.15
2023-12-13T10:26:38.642Z,5.00
2023-12-13T10:31:46.684Z,5.07
2023-12-13T10:36:52.109Z,5.50
2023-12-13T10:41:58.384Z,4.75
2023-12-13T10:47:06.457Z,6.10
2023-12-13T10:52:11.815Z,6.03
2023-12-13T10:57:16.423Z,5.50
2023-12-13T11:02:22.481Z,5.63
2023-12-13T11:07:26.613Z,7.00
2023-12-13T11:12:30.454Z,5.95
2023-12-13T11:17:39.178Z,5.63
2023-12-13T11:22:46.602Z,6.32
2023-12-13T11:32:57.822Z,4.60
2023-12-13T11:38:03.302Z,5.40
2023-12-13T11:43:07.197Z,5.00
2023-12-13T11:48:12.513Z,5.38
2023-12-13T11:53:16.981Z,4.20
2023-12-13T11:58:20.781Z,5.07
2023-12-13T12:03:26.156Z,4.85
2023-12-13T12:08:29.951Z,5.60
2023-12-13T12:13:34.817Z,5.47
2023-12-13T12:18:41.217Z,5.30
2023-12-13T12:23:46.877Z,5.20
2023-12-13T12:28:50.704Z,5.50
2023-12-13T12:34:00.103Z,5.97
2023-12-13T12:39:03.955Z,5.40
2023-12-13T12:44:08.814Z,5.18
2023-12-13T12:49:15.753Z,4.55
2023-12-13T12:54:19.738Z,5.13
2023-12-13T12:59:23.796Z,5.57
2023-12-13T13:04:29.093Z,5.05
2023-12-13T13:09:32.848Z,4.78
2023-12-13T13:14:36.596Z,5.18
2023-12-13T13:19:41.758Z,5.47
2023-12-13T13:24:45.660Z,6.13
2023-12-13T13:29:49.458Z,5.55
2023-12-13T13:34:54.754Z,5.55
2023-12-13T13:39:58.631Z,5.63
2023-12-13T13:45:02.686Z,5.53
2023-12-13T13:50:11.236Z,5.45
2023-12-13T13:55:15.135Z,5.10
2023-12-13T14:00:21.508Z,5.00
2023-12-13T14:05:26.980Z,5.83
2023-12-13T14:10:30.861Z,6.45
2023-12-13T14:15:34.575Z,6.30
2023-12-13T14:20:39.648Z,7.25
2023-12-13T14:25:43.636Z,7.20
2023-12-13T14:30:47.566Z,6.47
2023-12-13T14:35:52.811Z,6.13
2023-12-13T14:40:56.791Z,6.43
2023-12-13T14:46:00.524Z,6.88
2023-12-13T14:51:06.706Z,6.30
2023-12-13T14:56:11.024Z,6.53
2023-12-13T15:01:14.791Z,6.68
2023-12-13T15:06:20.103Z,6.20
2023-12-13T15:11:23.924Z,5.95
2023-12-13T15:16:27.677Z,5.88
2023-12-13T15:21:32.951Z,6.10
2023-12-13T15:26:37.113Z,5.97
2023-12-13T15:31:41.904Z,5.75
2023-12-13T15:36:48.436Z,6.15
2023-12-13T15:41:52.427Z,6.13
2023-12-13T15:46:56.543Z,6.30
2023-12-13T15:52:04.204Z,7.15
2023-12-13T15:57:08.010Z,5.78
2023-12-13T16:02:11.848Z,5.22
2023-12-13T16:07:16.962Z,5.97
2023-12-13T16:12:22.341Z,6.53
2023-12-13T16:17:26.056Z,8.23
2023-12-13T16:22:31.354Z,9.43
2023-12-13T16:27:35.175Z,6.90
2023-12-13T16:32:40.348Z,6.95
2023-12-13T16:37:46.040Z,7.20
2023-12-13T16:42:49.956Z,8.85
2023-12-13T16:47:53.667Z,12.55
2023-12-13T16:52:59.046Z,11.60
2023-12-13T16:58:03.142Z,8.10
2023-12-13T17:03:07.170Z,7.50
2023-12-13T17:08:12.321Z,7.97
2023-12-13T17:13:16.088Z,7.60
2023-12-13T17:18:20.513Z,8.82
2023-12-13T17:23:25.716Z,8.27
2023-12-13T17:28:29.504Z,8.70
2023-12-13T17:33:34.097Z,9.68
2023-12-13T17:38:40.729Z,9.65
2023-12-13T17:43:44.714Z,9.77
2023-12-13T17:48:48.473Z,10.52
2023-12-13T17:53:53.593Z,12.10
2023-12-13T17:58:57.395Z,12.93
2023-12-13T18:04:01.206Z,9.85
2023-12-13T18:09:06.561Z,9.35
2023-12-13T18:14:10.706Z,10.57
2023-12-13T18:19:14.608Z,9.43
2023-12-13T18:24:19.747Z,15.07
2023-12-13T18:29:23.498Z,10.75
2023-12-13T18:34:27.371Z,12.13
2023-12-13T18:39:32.612Z,11.45
2023-12-13T18:44:36.357Z,10.30
2023-12-13T18:49:40.955Z,10.18
2023-12-13T18:54:46.804Z,12.48
2023-12-13T18:59:50.505Z,12.52
2023-12-13T19:04:54.289Z,12.15
2023-12-13T19:09:59.533Z,10.80
2023-12-13T19:15:03.483Z,10.65
2023-12-13T19:20:08.572Z,12.00
2023-12-13T19:25:13.951Z,12.43
2023-12-13T19:30:17.888Z,11.27
2023-12-13T19:35:21.734Z,11.07
2023-12-13T19:40:26.985Z,11.73
2023-12-13T19:45:30.820Z,12.82
2023-12-13T19:50:34.564Z,12.25
2023-12-13T19:55:40.885Z,12.30
2023-12-13T20:00:44.621Z,12.83
2023-12-13T20:05:48.488Z,10.05
2023-12-13T20:10:53.754Z,11.65
2023-12-13T20:15:57.505Z,12.23
2023-12-13T20:21:01.200Z,11.65
2023-12-13T20:26:06.827Z,12.18
2023-12-13T20:31:10.606Z,12.63
2023-12-13T20:36:14.377Z,10.90
2023-12-13T20:41:19.476Z,12.18
2023-12-13T20:46:23.178Z,12.73
2023-12-13T20:51:27.041Z,12.70
2023-12-13T20:56:32.330Z,13.18
2023-12-13T21:01:36.118Z,11.18
2023-12-13T21:06:40.551Z,12.40
2023-12-13T21:11:46.174Z,12.15
2023-12-13T21:16:50.592Z,11.93
2023-12-13T21:21:54.444Z,13.35
2023-12-13T21:26:59.532Z,13.10
2023-12-13T21:32:03.321Z,13.13
2023-12-13T21:37:08.498Z,14.73
2023-12-13T21:42:13.679Z,13.57
2023-12-13T21:47:19.048Z,12.23
2023-12-13T21:52:22.770Z,15.23
2023-12-13T21:57:28.028Z,14.55
2023-12-13T22:02:32.069Z,13.93
2023-12-13T22:07:37.154Z,15.50
2023-12-13T22:12:42.508Z,16.38
2023-12-13T22:17:52.371Z,13.82
2023-12-13T22:22:56.350Z,14.90
2023-12-13T22:28:02.121Z,15.60
2023-12-13T22:33:05.959Z,13.45
2023-12-13T22:38:10.073Z,14.77
2023-12-13T22:43:15.281Z,14.88
2023-12-13T22:48:19.059Z,14.25
2023-12-13T22:53:22.902Z,13.93
2023-12-13T22:58:28.060Z,13.15
2023-12-13T23:03:31.886Z,14.50
2023-12-13T23:08:35.789Z,13.55
2023-12-13T23:13:40.932Z,12.27
2023-12-13T23:18:44.743Z,9.40
2023-12-13T23:23:48.546Z,9.00
2023-12-13T23:28:53.689Z,8.48
2023-12-13T23:33:57.611Z,8.02
2023-12-13T23:39:01.385Z,7.20
2023-12-13T23:44:06.577Z,7.20
2023-12-13T23:49:11.260Z,6.32
2023-12-13T23:54:15.099Z,5.90
2023-12-13T23:59:20.257Z,6.20
